sensor_id;sensor_type;location;lat;lon;timestamp;P1;durP1;ratioP1;P2;durP2;ratioP2
2362;SDS011;1192;51.664;7.626;2022-07-12T00:00:33;1.30;;;1.10;;
2362;SDS011;1192;51.664;7.626;2022-07-12T00:03:00;1.27;;;0.85;;
2362;SDS011;1192;51.664;7.626;2022-07-12T00:05:27;1.00;;;0.80;;
2362;SDS011;1192;51.664;7.626;2022-07-12T00:07:53;2.00;;;1.00;;
2362;SDS011;1192;51.664;7.626;2022-07-12T00:10:21;1.10;;;0.90;;
2362;SDS011;1192;51.664;7.626;2022-07-12T00:12:48;1.75;;;1.30;;
2362;SDS011;1192;51.664;7.626;2022-07-12T00:15:15;1.48;;;0.90;;
2362;SDS011;1192;51.664;7.626;2022-07-12T00:17:42;1.33;;;1.00;;
2362;SDS011;1192;51.664;7.626;2022-07-12T00:20:09;1.15;;;1.05;;
2362;SDS011;1192;51.664;7.626;2022-07-12T00:22:36;1.48;;;1.05;;
2362;SDS011;1192;51.664;7.626;2022-07-12T00:25:03;1.85;;;1.40;;
2362;SDS011;1192;51.664;7.626;2022-07-12T00:27:32;1.45;;;1.30;;
2362;SDS011;1192;51.664;7.626;2022-07-12T00:29:59;2.15;;;1.35;;
2362;SDS011;1192;51.664;7.626;2022-07-12T00:32:26;1.30;;;1.20;;
2362;SDS011;1192;51.664;7.626;2022-07-12T00:34:53;2.10;;;1.55;;
2362;SDS011;1192;51.664;7.626;2022-07-12T00:37:19;1.52;;;1.17;;
2362;SDS011;1192;51.664;7.626;2022-07-12T00:39:46;1.48;;;1.38;;
2362;SDS011;1192;51.664;7.626;2022-07-12T00:42:13;1.10;;;0.90;;
2362;SDS011;1192;51.664;7.626;2022-07-12T00:44:41;1.30;;;1.20;;
2362;SDS011;1192;51.664;7.626;2022-07-12T00:47:08;1.30;;;1.13;;
2362;SDS011;1192;51.664;7.626;2022-07-12T00:49:47;2.15;;;1.00;;
2362;SDS011;1192;51.664;7.626;2022-07-12T00:52:14;1.30;;;1.10;;
2362;SDS011;1192;51.664;7.626;2022-07-12T00:54:41;1.38;;;1.15;;
2362;SDS011;1192;51.664;7.626;2022-07-12T00:57:08;1.10;;;0.95;;
2362;SDS011;1192;51.664;7.626;2022-07-12T00:59:35;1.10;;;1.00;;
2362;SDS011;1192;51.664;7.626;2022-07-12T01:02:03;1.50;;;1.13;;
2362;SDS011;1192;51.664;7.626;2022-07-12T01:04:30;1.83;;;1.17;;
2362;SDS011;1192;51.664;7.626;2022-07-12T01:06:57;1.70;;;1.20;;
2362;SDS011;1192;51.664;7.626;2022-07-12T01:09:24;1.88;;;1.55;;
2362;SDS011;1192;51.664;7.626;2022-07-12T01:11:51;2.60;;;2.13;;
2362;SDS011;1192;51.664;7.626;2022-07-12T01:14:18;1.38;;;1.00;;
2362;SDS011;1192;51.664;7.626;2022-07-12T01:16:46;1.48;;;1.35;;
2362;SDS011;1192;51.664;7.626;2022-07-12T01:19:14;1.63;;;1.38;;
2362;SDS011;1192;51.664;7.626;2022-07-12T01:21:46;1.00;;;0.90;;
2362;SDS011;1192;51.664;7.626;2022-07-12T01:24:16;1.40;;;0.98;;
2362;SDS011;1192;51.664;7.626;2022-07-12T01:26:44;1.30;;;1.00;;
2362;SDS011;1192;51.664;7.626;2022-07-12T01:29:11;1.52;;;1.30;;
2362;SDS011;1192;51.664;7.626;2022-07-12T01:31:39;1.23;;;1.13;;
2362;SDS011;1192;51.664;7.626;2022-07-12T01:34:06;1.42;;;0.95;;
2362;SDS011;1192;51.664;7.626;2022-07-12T01:36:33;4.82;;;1.90;;
2362;SDS011;1192;51.664;7.626;2022-07-12T01:39:02;1.30;;;1.20;;
2362;SDS011;1192;51.664;7.626;2022-07-12T01:41:31;1.50;;;1.30;;
2362;SDS011;1192;51.664;7.626;2022-07-12T01:43:59;1.27;;;1.10;;
2362;SDS011;1192;51.664;7.626;2022-07-12T01:46:26;1.90;;;1.33;;
2362;SDS011;1192;51.664;7.626;2022-07-12T01:48:52;1.48;;;1.15;;
2362;SDS011;1192;51.664;7.626;2022-07-12T01:51:19;1.27;;;0.98;;
2362;SDS011;1192;51.664;7.626;2022-07-12T01:53:46;1.45;;;1.10;;
2362;SDS011;1192;51.664;7.626;2022-07-12T01:56:13;1.67;;;1.48;;
2362;SDS011;1192;51.664;7.626;2022-07-12T01:58:41;1.48;;;0.90;;
2362;SDS011;1192;51.664;7.626;2022-07-12T02:01:09;80.85;;;77.63;;
2362;SDS011;1192;51.664;7.626;2022-07-12T02:03:37;7.00;;;6.68;;
2362;SDS011;1192;51.664;7.626;2022-07-12T02:06:04;11.88;;;11.38;;
2362;SDS011;1192;51.664;7.626;2022-07-12T02:08:31;3.58;;;3.40;;
2362;SDS011;1192;51.664;7.626;2022-07-12T02:10:58;1.45;;;1.27;;
2362;SDS011;1192;51.664;7.626;2022-07-12T02:13:24;82.05;;;79.05;;
2362;SDS011;1192;51.664;7.626;2022-07-12T02:15:52;7.60;;;7.20;;
2362;SDS011;1192;51.664;7.626;2022-07-12T02:18:19;1.10;;;0.90;;
2362;SDS011;1192;51.664;7.626;2022-07-12T02:20:46;1.00;;;0.85;;
2362;SDS011;1192;51.664;7.626;2022-07-12T02:23:13;1.60;;;1.20;;
2362;SDS011;1192;51.664;7.626;2022-07-12T02:25:40;1.10;;;1.00;;
2362;SDS011;1192;51.664;7.626;2022-07-12T02:28:06;1.02;;;0.90;;
2362;SDS011;1192;51.664;7.626;2022-07-12T02:30:33;1.10;;;0.90;;
2362;SDS011;1192;51.664;7.626;2022-07-12T02:33:02;1.55;;;1.00;;
2362;SDS011;1192;51.664;7.626;2022-07-12T02:35:29;1.60;;;1.00;;
2362;SDS011;1192;51.664;7.626;2022-07-12T02:37:56;1.30;;;1.00;;
2362;SDS011;1192;51.664;7.626;2022-07-12T02:40:23;1.15;;;0.90;;
2362;SDS011;1192;51.664;7.626;2022-07-12T02:43:07;1.73;;;1.10;;
2362;SDS011;1192;51.664;7.626;2022-07-12T02:45:34;1.40;;;1.10;;
2362;SDS011;1192;51.664;7.626;2022-07-12T02:48:02;0.90;;;0.70;;
2362;SDS011;1192;51.664;7.626;2022-07-12T02:50:29;1.30;;;1.00;;
2362;SDS011;1192;51.664;7.626;2022-07-12T02:52:56;2.17;;;0.90;;
2362;SDS011;1192;51.664;7.626;2022-07-12T02:55:23;1.63;;;1.13;;
2362;SDS011;1192;51.664;7.626;2022-07-12T02:57:49;1.40;;;1.00;;
2362;SDS011;1192;51.664;7.626;2022-07-12T03:00:16;1.33;;;1.02;;
2362;SDS011;1192;51.664;7.626;2022-07-12T03:02:43;1.30;;;0.80;;
2362;SDS011;1192;51.664;7.626;2022-07-12T03:05:11;1.38;;;1.15;;
2362;SDS011;1192;51.664;7.626;2022-07-12T03:07:38;1.90;;;1.02;;
2362;SDS011;1192;51.664;7.626;2022-07-12T03:10:05;1.52;;;1.00;;
2362;SDS011;1192;51.664;7.626;2022-07-12T03:12:32;0.98;;;0.80;;
2362;SDS011;1192;51.664;7.626;2022-07-12T03:14:59;1.13;;;0.90;;
2362;SDS011;1192;51.664;7.626;2022-07-12T03:17:25;8.77;;;8.48;;
2362;SDS011;1192;51.664;7.626;2022-07-12T03:19:52;181.18;;;174.80;;
2362;SDS011;1192;51.664;7.626;2022-07-12T03:22:20;1.30;;;1.02;;
2362;SDS011;1192;51.664;7.626;2022-07-12T03:24:47;1.02;;;0.90;;
2362;SDS011;1192;51.664;7.626;2022-07-12T03:27:14;2.35;;;0.80;;
2362;SDS011;1192;51.664;7.626;2022-07-12T03:29:41;7.28;;;6.97;;
2362;SDS011;1192;51.664;7.626;2022-07-12T03:32:07;1.17;;;0.80;;
2362;SDS011;1192;51.664;7.626;2022-07-12T03:34:35;1.02;;;0.90;;
2362;SDS011;1192;51.664;7.626;2022-07-12T03:37:02;1.50;;;1.15;;
2362;SDS011;1192;51.664;7.626;2022-07-12T03:39:30;1.20;;;0.80;;
2362;SDS011;1192;51.664;7.626;2022-07-12T03:41:57;1.65;;;1.10;;
2362;SDS011;1192;51.664;7.626;2022-07-12T03:44:23;1.20;;;0.80;;
2362;SDS011;1192;51.664;7.626;2022-07-12T03:46:50;1.15;;;0.90;;
2362;SDS011;1192;51.664;7.626;2022-07-12T03:49:17;1.00;;;0.80;;
2362;SDS011;1192;51.664;7.626;2022-07-12T03:51:44;1.30;;;1.20;;
2362;SDS011;1192;51.664;7.626;2022-07-12T03:54:11;1.00;;;0.80;;
2362;SDS011;1192;51.664;7.626;2022-07-12T03:56:39;1.30;;;1.10;;
2362;SDS011;1192;51.664;7.626;2022-07-12T03:59:23;1.05;;;0.90;;
2362;SDS011;1192;51.664;7.626;2022-07-12T04:01:50;1.25;;;1.05;;
2362;SDS011;1192;51.664;7.626;2022-07-12T04:04:16;1.77;;;1.00;;
2362;SDS011;1192;51.664;7.626;2022-07-12T04:06:43;1.15;;;1.00;;
2362;SDS011;1192;51.664;7.626;2022-07-12T04:09:11;1.00;;;0.80;;
2362;SDS011;1192;51.664;7.626;2022-07-12T04:11:39;1.17;;;1.00;;
2362;SDS011;1192;51.664;7.626;2022-07-12T04:14:06;2.40;;;0.98;;
2362;SDS011;1192;51.664;7.626;2022-07-12T04:16:33;1.10;;;0.90;;
2362;SDS011;1192;51.664;7.626;2022-07-12T04:18:59;1.00;;;0.80;;
2362;SDS011;1192;51.664;7.626;2022-07-12T04:21:26;1.50;;;1.05;;
2362;SDS011;1192;51.664;7.626;2022-07-12T04:23:53;1.15;;;1.00;;
2362;SDS011;1192;51.664;7.626;2022-07-12T04:26:20;1.20;;;1.05;;
2362;SDS011;1192;51.664;7.626;2022-07-12T04:28:48;1.15;;;1.05;;
2362;SDS011;1192;51.664;7.626;2022-07-12T04:31:15;1.80;;;0.88;;
2362;SDS011;1192;51.664;7.626;2022-07-12T04:33:42;1.40;;;0.82;;
2362;SDS011;1192;51.664;7.626;2022-07-12T04:36:08;1.40;;;1.05;;
2362;SDS011;1192;51.664;7.626;2022-07-12T04:38:35;1.33;;;1.17;;
2362;SDS011;1192;51.664;7.626;2022-07-12T04:41:03;1.10;;;0.98;;
2362;SDS011;1192;51.664;7.626;2022-07-12T04:43:29;1.33;;;1.00;;
2362;SDS011;1192;51.664;7.626;2022-07-12T04:46:00;2.38;;;1.05;;
2362;SDS011;1192;51.664;7.626;2022-07-12T04:48:31;1.20;;;1.10;;
2362;SDS011;1192;51.664;7.626;2022-07-12T04:50:58;1.40;;;1.10;;
2362;SDS011;1192;51.664;7.626;2022-07-12T04:53:25;1.25;;;1.00;;
2362;SDS011;1192;51.664;7.626;2022-07-12T04:55:53;1.00;;;0.90;;
2362;SDS011;1192;51.664;7.626;2022-07-12T04:58:20;1.20;;;1.10;;
2362;SDS011;1192;51.664;7.626;2022-07-12T05:00:47;1.67;;;1.13;;
2362;SDS011;1192;51.664;7.626;2022-07-12T05:03:15;1.30;;;1.00;;
2362;SDS011;1192;51.664;7.626;2022-07-12T05:05:42;1.20;;;0.90;;
2362;SDS011;1192;51.664;7.626;2022-07-12T05:08:09;1.42;;;0.98;;
2362;SDS011;1192;51.664;7.626;2022-07-12T05:10:36;1.10;;;0.90;;
2362;SDS011;1192;51.664;7.626;2022-07-12T05:13:03;2.05;;;1.10;;
2362;SDS011;1192;51.664;7.626;2022-07-12T05:15:30;1.48;;;0.90;;
2362;SDS011;1192;51.664;7.626;2022-07-12T05:17:57;1.65;;;1.55;;
2362;SDS011;1192;51.664;7.626;2022-07-12T05:20:25;1.10;;;1.00;;
2362;SDS011;1192;51.664;7.626;2022-07-12T05:22:52;1.08;;;0.93;;
2362;SDS011;1192;51.664;7.626;2022-07-12T05:25:19;1.20;;;0.90;;
2362;SDS011;1192;51.664;7.626;2022-07-12T05:27:46;1.40;;;1.30;;
2362;SDS011;1192;51.664;7.626;2022-07-12T05:30:13;2.00;;;1.00;;
2362;SDS011;1192;51.664;7.626;2022-07-12T05:32:40;1.60;;;1.10;;
2362;SDS011;1192;51.664;7.626;2022-07-12T05:35:07;1.10;;;0.93;;
2362;SDS011;1192;51.664;7.626;2022-07-12T05:37:35;1.75;;;1.65;;
2362;SDS011;1192;51.664;7.626;2022-07-12T05:40:02;3.10;;;1.88;;
2362;SDS011;1192;51.664;7.626;2022-07-12T05:42:29;1.30;;;1.10;;
2362;SDS011;1192;51.664;7.626;2022-07-12T05:44:56;1.30;;;1.08;;
2362;SDS011;1192;51.664;7.626;2022-07-12T05:47:23;1.58;;;1.00;;
2362;SDS011;1192;51.664;7.626;2022-07-12T05:49:50;1.10;;;1.00;;
2362;SDS011;1192;51.664;7.626;2022-07-12T05:52:16;1.30;;;1.00;;
2362;SDS011;1192;51.664;7.626;2022-07-12T05:54:58;1.00;;;0.90;;
2362;SDS011;1192;51.664;7.626;2022-07-12T05:57:25;1.00;;;0.90;;
2362;SDS011;1192;51.664;7.626;2022-07-12T05:59:52;1.60;;;1.30;;
2362;SDS011;1192;51.664;7.626;2022-07-12T06:02:19;1.05;;;0.85;;
2362;SDS011;1192;51.664;7.626;2022-07-12T06:04:45;1.52;;;1.23;;
2362;SDS011;1192;51.664;7.626;2022-07-12T06:07:12;1.00;;;0.90;;
2362;SDS011;1192;51.664;7.626;2022-07-12T06:09:39;1.05;;;0.93;;
2362;SDS011;1192;51.664;7.626;2022-07-12T06:12:07;1.55;;;1.15;;
2362;SDS011;1192;51.664;7.626;2022-07-12T06:14:35;1.27;;;1.00;;
2362;SDS011;1192;51.664;7.626;2022-07-12T06:17:02;1.35;;;1.20;;
2362;SDS011;1192;51.664;7.626;2022-07-12T06:19:29;1.30;;;0.80;;
2362;SDS011;1192;51.664;7.626;2022-07-12T06:21:56;1.85;;;1.42;;
2362;SDS011;1192;51.664;7.626;2022-07-12T06:24:23;1.63;;;1.00;;
2362;SDS011;1192;51.664;7.626;2022-07-12T06:26:49;0.97;;;0.80;;
2362;SDS011;1192;51.664;7.626;2022-07-12T06:29:17;1.33;;;1.17;;
2362;SDS011;1192;51.664;7.626;2022-07-12T06:31:44;1.90;;;0.90;;
2362;SDS011;1192;51.664;7.626;2022-07-12T06:34:12;1.03;;;0.80;;
2362;SDS011;1192;51.664;7.626;2022-07-12T06:36:39;1.33;;;0.97;;
2362;SDS011;1192;51.664;7.626;2022-07-12T06:39:08;1.20;;;0.90;;
2362;SDS011;1192;51.664;7.626;2022-07-12T06:41:35;1.20;;;1.10;;
2362;SDS011;1192;51.664;7.626;2022-07-12T06:44:02;1.00;;;0.87;;
2362;SDS011;1192;51.664;7.626;2022-07-12T06:46:30;1.73;;;1.10;;
2362;SDS011;1192;51.664;7.626;2022-07-12T06:48:57;1.70;;;0.73;;
2362;SDS011;1192;51.664;7.626;2022-07-12T06:51:24;1.10;;;0.90;;
2362;SDS011;1192;51.664;7.626;2022-07-12T06:53:51;1.20;;;1.00;;
2362;SDS011;1192;51.664;7.626;2022-07-12T06:56:17;1.00;;;0.80;;
2362;SDS011;1192;51.664;7.626;2022-07-12T06:58:44;2.03;;;1.17;;
2362;SDS011;1192;51.664;7.626;2022-07-12T07:01:11;1.40;;;1.13;;
2362;SDS011;1192;51.664;7.626;2022-07-12T07:03:39;1.67;;;0.90;;
2362;SDS011;1192;51.664;7.626;2022-07-12T07:06:06;1.23;;;0.80;;
2362;SDS011;1192;51.664;7.626;2022-07-12T07:08:32;1.13;;;0.87;;
2362;SDS011;1192;51.664;7.626;2022-07-12T07:10:59;1.00;;;0.83;;
2362;SDS011;1192;51.664;7.626;2022-07-12T07:13:26;1.10;;;0.80;;
2362;SDS011;1192;51.664;7.626;2022-07-12T07:15:53;1.00;;;0.80;;
2362;SDS011;1192;51.664;7.626;2022-07-12T07:18:20;1.20;;;0.80;;
2362;SDS011;1192;51.664;7.626;2022-07-12T07:20:48;1.23;;;0.83;;
2362;SDS011;1192;51.664;7.626;2022-07-12T07:23:15;1.87;;;0.90;;
2362;SDS011;1192;51.664;7.626;2022-07-12T07:25:43;1.30;;;1.10;;
2362;SDS011;1192;51.664;7.626;2022-07-12T07:28:10;1.10;;;0.80;;
2362;SDS011;1192;51.664;7.626;2022-07-12T07:30:37;1.10;;;0.93;;
2362;SDS011;1192;51.664;7.626;2022-07-12T07:33:17;3.63;;;1.00;;
2362;SDS011;1192;51.664;7.626;2022-07-12T07:35:45;2.03;;;1.20;;
2362;SDS011;1192;51.664;7.626;2022-07-12T07:38:13;1.03;;;0.70;;
2362;SDS011;1192;51.664;7.626;2022-07-12T07:40:40;2.57;;;1.00;;
2362;SDS011;1192;51.664;7.626;2022-07-12T07:43:07;1.83;;;0.90;;
2362;SDS011;1192;51.664;7.626;2022-07-12T07:45:33;1.13;;;0.90;;
2362;SDS011;1192;51.664;7.626;2022-07-12T07:48:00;2.57;;;1.20;;
2362;SDS011;1192;51.664;7.626;2022-07-12T07:50:27;1.10;;;0.93;;
2362;SDS011;1192;51.664;7.626;2022-07-12T07:52:54;1.23;;;0.80;;
2362;SDS011;1192;51.664;7.626;2022-07-12T07:55:23;1.50;;;0.87;;
2362;SDS011;1192;51.664;7.626;2022-07-12T07:57:50;1.07;;;0.80;;
2362;SDS011;1192;51.664;7.626;2022-07-12T08:00:16;1.13;;;0.77;;
2362;SDS011;1192;51.664;7.626;2022-07-12T08:02:43;1.10;;;1.00;;
2362;SDS011;1192;51.664;7.626;2022-07-12T08:05:10;1.00;;;0.80;;
2362;SDS011;1192;51.664;7.626;2022-07-12T08:07:37;1.27;;;0.80;;
2362;SDS011;1192;51.664;7.626;2022-07-12T08:10:04;1.10;;;0.83;;
2362;SDS011;1192;51.664;7.626;2022-07-12T08:12:32;0.90;;;0.67;;
2362;SDS011;1192;51.664;7.626;2022-07-12T08:14:59;1.10;;;0.80;;
2362;SDS011;1192;51.664;7.626;2022-07-12T08:17:26;1.10;;;0.70;;
2362;SDS011;1192;51.664;7.626;2022-07-12T08:19:53;1.00;;;0.70;;
2362;SDS011;1192;51.664;7.626;2022-07-12T08:22:20;1.23;;;0.93;;
2362;SDS011;1192;51.664;7.626;2022-07-12T08:24:47;1.20;;;0.90;;
2362;SDS011;1192;51.664;7.626;2022-07-12T08:27:15;1.10;;;0.80;;
2362;SDS011;1192;51.664;7.626;2022-07-12T08:29:43;1.30;;;0.80;;
2362;SDS011;1192;51.664;7.626;2022-07-12T08:32:09;1.10;;;0.80;;
2362;SDS011;1192;51.664;7.626;2022-07-12T08:34:36;1.00;;;0.80;;
2362;SDS011;1192;51.664;7.626;2022-07-12T08:37:03;1.10;;;0.80;;
2362;SDS011;1192;51.664;7.626;2022-07-12T08:39:30;0.90;;;0.80;;
2362;SDS011;1192;51.664;7.626;2022-07-12T08:41:57;1.00;;;0.73;;
2362;SDS011;1192;51.664;7.626;2022-07-12T08:44:24;1.10;;;0.70;;
2362;SDS011;1192;51.664;7.626;2022-07-12T08:46:52;1.07;;;0.77;;
2362;SDS011;1192;51.664;7.626;2022-07-12T08:49:19;4.50;;;0.90;;
2362;SDS011;1192;51.664;7.626;2022-07-12T08:51:46;1.40;;;0.97;;
2362;SDS011;1192;51.664;7.626;2022-07-12T08:54:13;1.13;;;0.70;;
2362;SDS011;1192;51.664;7.626;2022-07-12T08:56:42;2.20;;;0.73;;
2362;SDS011;1192;51.664;7.626;2022-07-12T08:59:10;1.00;;;0.80;;
2362;SDS011;1192;51.664;7.626;2022-07-12T09:01:38;1.00;;;0.80;;
2362;SDS011;1192;51.664;7.626;2022-07-12T09:04:11;1.87;;;1.00;;
2362;SDS011;1192;51.664;7.626;2022-07-12T09:06:39;1.00;;;0.77;;
2362;SDS011;1192;51.664;7.626;2022-07-12T09:09:05;1.53;;;0.80;;
2362;SDS011;1192;51.664;7.626;2022-07-12T09:11:34;1.50;;;1.40;;
2362;SDS011;1192;51.664;7.626;2022-07-12T09:14:02;0.90;;;0.60;;
2362;SDS011;1192;51.664;7.626;2022-07-12T09:16:29;1.10;;;0.83;;
2362;SDS011;1192;51.664;7.626;2022-07-12T09:19:13;0.90;;;0.70;;
2362;SDS011;1192;51.664;7.626;2022-07-12T09:21:46;1.03;;;0.77;;
2362;SDS011;1192;51.664;7.626;2022-07-12T09:24:15;1.33;;;0.80;;
2362;SDS011;1192;51.664;7.626;2022-07-12T09:26:42;1.30;;;1.00;;
2362;SDS011;1192;51.664;7.626;2022-07-12T09:29:10;1.00;;;0.70;;
2362;SDS011;1192;51.664;7.626;2022-07-12T09:31:38;1.00;;;0.80;;
2362;SDS011;1192;51.664;7.626;2022-07-12T09:34:27;1.10;;;0.70;;
2362;SDS011;1192;51.664;7.626;2022-07-12T09:37:12;0.90;;;0.70;;
2362;SDS011;1192;51.664;7.626;2022-07-12T09:39:39;1.00;;;0.73;;
2362;SDS011;1192;51.664;7.626;2022-07-12T09:42:08;0.90;;;0.70;;
2362;SDS011;1192;51.664;7.626;2022-07-12T09:44:36;0.90;;;0.70;;
2362;SDS011;1192;51.664;7.626;2022-07-12T09:47:03;1.73;;;0.80;;
2362;SDS011;1192;51.664;7.626;2022-07-12T09:49:34;1.17;;;0.80;;
2362;SDS011;1192;51.664;7.626;2022-07-12T09:52:02;1.57;;;1.10;;
2362;SDS011;1192;51.664;7.626;2022-07-12T09:54:30;1.00;;;0.70;;
2362;SDS011;1192;51.664;7.626;2022-07-12T09:57:02;0.90;;;0.60;;
2362;SDS011;1192;51.664;7.626;2022-07-12T09:59:30;0.90;;;0.80;;
2362;SDS011;1192;51.664;7.626;2022-07-12T10:02:03;1.13;;;0.80;;
2362;SDS011;1192;51.664;7.626;2022-07-12T10:04:30;1.10;;;0.87;;
2362;SDS011;1192;51.664;7.626;2022-07-12T10:07:01;1.20;;;0.97;;
2362;SDS011;1192;51.664;7.626;2022-07-12T10:09:29;1.10;;;0.90;;
2362;SDS011;1192;51.664;7.626;2022-07-12T10:11:56;0.90;;;0.70;;
2362;SDS011;1192;51.664;7.626;2022-07-12T10:14:23;1.40;;;1.17;;
2362;SDS011;1192;51.664;7.626;2022-07-12T10:16:51;0.90;;;0.70;;
2362;SDS011;1192;51.664;7.626;2022-07-12T10:19:24;1.00;;;0.70;;
2362;SDS011;1192;51.664;7.626;2022-07-12T10:21:54;0.90;;;0.70;;
2362;SDS011;1192;51.664;7.626;2022-07-12T10:27:27;1.00;;;0.70;;
2362;SDS011;1192;51.664;7.626;2022-07-12T10:32:39;1.57;;;1.00;;
2362;SDS011;1192;51.664;7.626;2022-07-12T10:35:11;1.00;;;0.70;;
2362;SDS011;1192;51.664;7.626;2022-07-12T10:37:40;1.10;;;0.90;;
2362;SDS011;1192;51.664;7.626;2022-07-12T10:40:11;1.40;;;0.67;;
2362;SDS011;1192;51.664;7.626;2022-07-12T10:42:38;1.10;;;0.80;;
2362;SDS011;1192;51.664;7.626;2022-07-12T10:45:09;1.00;;;0.60;;
2362;SDS011;1192;51.664;7.626;2022-07-12T10:47:54;2.13;;;0.80;;
2362;SDS011;1192;51.664;7.626;2022-07-12T10:53:23;1.00;;;0.80;;
2362;SDS011;1192;51.664;7.626;2022-07-12T10:56:08;1.00;;;0.70;;
2362;SDS011;1192;51.664;7.626;2022-07-12T10:58:36;1.00;;;0.80;;
2362;SDS011;1192;51.664;7.626;2022-07-12T11:01:04;1.47;;;0.70;;
2362;SDS011;1192;51.664;7.626;2022-07-12T11:03:32;1.20;;;0.70;;
2362;SDS011;1192;51.664;7.626;2022-07-12T11:06:04;1.10;;;0.93;;
2362;SDS011;1192;51.664;7.626;2022-07-12T11:08:33;1.10;;;0.80;;
2362;SDS011;1192;51.664;7.626;2022-07-12T11:11:13;1.20;;;0.70;;
2362;SDS011;1192;51.664;7.626;2022-07-12T11:13:39;1.00;;;0.80;;
2362;SDS011;1192;51.664;7.626;2022-07-12T11:16:07;1.00;;;0.70;;
2362;SDS011;1192;51.664;7.626;2022-07-12T11:18:34;0.90;;;0.63;;
2362;SDS011;1192;51.664;7.626;2022-07-12T11:21:02;1.00;;;0.77;;
2362;SDS011;1192;51.664;7.626;2022-07-12T11:23:30;1.20;;;1.00;;
2362;SDS011;1192;51.664;7.626;2022-07-12T11:25:59;2.13;;;1.00;;
2362;SDS011;1192;51.664;7.626;2022-07-12T11:28:27;1.30;;;1.07;;
2362;SDS011;1192;51.664;7.626;2022-07-12T11:31:01;1.23;;;1.13;;
2362;SDS011;1192;51.664;7.626;2022-07-12T11:33:30;1.40;;;1.10;;
2362;SDS011;1192;51.664;7.626;2022-07-12T11:35:58;1.07;;;0.97;;
2362;SDS011;1192;51.664;7.626;2022-07-12T11:38:26;1.40;;;1.20;;
2362;SDS011;1192;51.664;7.626;2022-07-12T11:40:54;1.30;;;1.10;;
2362;SDS011;1192;51.664;7.626;2022-07-12T11:43:23;1.30;;;0.80;;
2362;SDS011;1192;51.664;7.626;2022-07-12T11:45:51;1.00;;;0.73;;
2362;SDS011;1192;51.664;7.626;2022-07-12T11:48:18;1.07;;;0.97;;
2362;SDS011;1192;51.664;7.626;2022-07-12T11:50:46;1.50;;;1.20;;
2362;SDS011;1192;51.664;7.626;2022-07-12T11:53:14;3.33;;;3.13;;
2362;SDS011;1192;51.664;7.626;2022-07-12T11:55:43;2.00;;;1.70;;
2362;SDS011;1192;51.664;7.626;2022-07-12T11:58:11;1.67;;;1.57;;
2362;SDS011;1192;51.664;7.626;2022-07-12T12:00:40;2.50;;;2.40;;
2362;SDS011;1192;51.664;7.626;2022-07-12T12:03:07;4.73;;;4.53;;
2362;SDS011;1192;51.664;7.626;2022-07-12T12:05:34;3.43;;;3.23;;
2362;SDS011;1192;51.664;7.626;2022-07-12T12:08:02;4.57;;;4.23;;
2362;SDS011;1192;51.664;7.626;2022-07-12T12:10:29;4.33;;;4.20;;
2362;SDS011;1192;51.664;7.626;2022-07-12T12:12:57;8.83;;;8.53;;
2362;SDS011;1192;51.664;7.626;2022-07-12T12:15:26;5.43;;;5.23;;
2362;SDS011;1192;51.664;7.626;2022-07-12T12:17:56;4.67;;;4.47;;
2362;SDS011;1192;51.664;7.626;2022-07-12T12:20:25;8.20;;;7.90;;
2362;SDS011;1192;51.664;7.626;2022-07-12T12:22:53;9.13;;;8.80;;
2362;SDS011;1192;51.664;7.626;2022-07-12T12:25:20;5.43;;;5.23;;
2362;SDS011;1192;51.664;7.626;2022-07-12T12:27:48;5.33;;;5.13;;
2362;SDS011;1192;51.664;7.626;2022-07-12T12:30:19;6.60;;;6.40;;
2362;SDS011;1192;51.664;7.626;2022-07-12T12:32:47;3.97;;;3.77;;
2362;SDS011;1192;51.664;7.626;2022-07-12T12:35:17;3.23;;;3.07;;
2362;SDS011;1192;51.664;7.626;2022-07-12T12:37:48;4.07;;;3.87;;
2362;SDS011;1192;51.664;7.626;2022-07-12T12:40:20;6.47;;;6.20;;
2362;SDS011;1192;51.664;7.626;2022-07-12T12:42:47;6.87;;;6.57;;
2362;SDS011;1192;51.664;7.626;2022-07-12T12:45:18;11.43;;;10.93;;
2362;SDS011;1192;51.664;7.626;2022-07-12T12:47:53;12.30;;;11.87;;
2362;SDS011;1192;51.664;7.626;2022-07-12T12:50:36;8.93;;;8.63;;
2362;SDS011;1192;51.664;7.626;2022-07-12T12:53:07;12.23;;;11.73;;
2362;SDS011;1192;51.664;7.626;2022-07-12T12:55:35;21.87;;;21.13;;
2362;SDS011;1192;51.664;7.626;2022-07-12T12:58:03;23.90;;;23.13;;
2362;SDS011;1192;51.664;7.626;2022-07-12T13:00:29;19.37;;;18.73;;
2362;SDS011;1192;51.664;7.626;2022-07-12T13:02:57;33.80;;;32.67;;
2362;SDS011;1192;51.664;7.626;2022-07-12T13:05:25;39.30;;;37.97;;
2362;SDS011;1192;51.664;7.626;2022-07-12T13:07:54;36.03;;;34.87;;
2362;SDS011;1192;51.664;7.626;2022-07-12T13:10:21;37.97;;;36.73;;
2362;SDS011;1192;51.664;7.626;2022-07-12T13:12:48;66.83;;;64.63;;
2362;SDS011;1192;51.664;7.626;2022-07-12T13:15:15;52.27;;;50.43;;
2362;SDS011;1192;51.664;7.626;2022-07-12T13:17:42;58.70;;;56.77;;
2362;SDS011;1192;51.664;7.626;2022-07-12T13:20:10;100.13;;;96.90;;
2362;SDS011;1192;51.664;7.626;2022-07-12T13:22:38;102.57;;;99.23;;
2362;SDS011;1192;51.664;7.626;2022-07-12T13:25:07;119.73;;;115.77;;
2362;SDS011;1192;51.664;7.626;2022-07-12T13:27:34;509.30;;;486.73;;
2362;SDS011;1192;51.664;7.626;2022-07-12T13:30:02;491.97;;;470.47;;
2362;SDS011;1192;51.664;7.626;2022-07-12T13:32:30;590.97;;;561.73;;
2362;SDS011;1192;51.664;7.626;2022-07-12T13:34:57;677.17;;;640.53;;
2362;SDS011;1192;51.664;7.626;2022-07-12T13:37:25;260.30;;;251.43;;
2362;SDS011;1192;51.664;7.626;2022-07-12T13:39:52;312.57;;;301.43;;
2362;SDS011;1192;51.664;7.626;2022-07-12T13:42:41;334.80;;;322.70;;
2362;SDS011;1192;51.664;7.626;2022-07-12T13:45:10;399.43;;;384.10;;
2362;SDS011;1192;51.664;7.626;2022-07-12T13:47:38;457.77;;;438.77;;
2362;SDS011;1192;51.664;7.626;2022-07-12T13:50:05;644.43;;;610.83;;
2362;SDS011;1192;51.664;7.626;2022-07-12T13:52:33;457.73;;;438.67;;
2362;SDS011;1192;51.664;7.626;2022-07-12T13:55:00;515.50;;;492.50;;
2362;SDS011;1192;51.664;7.626;2022-07-12T13:57:29;682.53;;;645.40;;
2362;SDS011;1192;51.664;7.626;2022-07-12T13:59:58;861.80;;;810.87;;
2362;SDS011;1192;51.664;7.626;2022-07-12T14:02:26;704.23;;;665.57;;
2362;SDS011;1192;51.664;7.626;2022-07-12T14:04:53;349.90;;;336.87;;
2362;SDS011;1192;51.664;7.626;2022-07-12T14:07:20;246.90;;;238.37;;
2362;SDS011;1192;51.664;7.626;2022-07-12T14:09:47;195.53;;;189.00;;
2362;SDS011;1192;51.664;7.626;2022-07-12T14:12:14;167.13;;;161.53;;
2362;SDS011;1192;51.664;7.626;2022-07-12T14:14:42;140.20;;;135.43;;
2362;SDS011;1192;51.664;7.626;2022-07-12T14:17:27;119.93;;;115.97;;
2362;SDS011;1192;51.664;7.626;2022-07-12T14:19:54;122.87;;;118.87;;
2362;SDS011;1192;51.664;7.626;2022-07-12T14:22:21;133.27;;;128.90;;
2362;SDS011;1192;51.664;7.626;2022-07-12T14:24:48;151.43;;;146.43;;
2362;SDS011;1192;51.664;7.626;2022-07-12T14:27:15;120.23;;;116.20;;
2362;SDS011;1192;51.664;7.626;2022-07-12T14:29:42;131.83;;;127.47;;
2362;SDS011;1192;51.664;7.626;2022-07-12T14:32:09;125.73;;;121.47;;
2362;SDS011;1192;51.664;7.626;2022-07-12T14:34:37;112.40;;;108.73;;
2362;SDS011;1192;51.664;7.626;2022-07-12T14:37:04;55.60;;;53.77;;
2362;SDS011;1192;51.664;7.626;2022-07-12T14:39:31;118.60;;;114.73;;
2362;SDS011;1192;51.664;7.626;2022-07-12T14:41:59;65.30;;;63.17;;
2362;SDS011;1192;51.664;7.626;2022-07-12T14:44:26;109.57;;;106.00;;
2362;SDS011;1192;51.664;7.626;2022-07-12T14:46:53;123.27;;;119.23;;
2362;SDS011;1192;51.664;7.626;2022-07-12T14:49:20;177.07;;;171.23;;
2362;SDS011;1192;51.664;7.626;2022-07-12T14:51:48;394.47;;;379.30;;
2362;SDS011;1192;51.664;7.626;2022-07-12T14:54:15;414.33;;;397.80;;
2362;SDS011;1192;51.664;7.626;2022-07-12T14:56:42;381.70;;;366.90;;
2362;SDS011;1192;51.664;7.626;2022-07-12T14:59:09;88.20;;;85.23;;
2362;SDS011;1192;51.664;7.626;2022-07-12T15:01:35;84.37;;;81.47;;
2362;SDS011;1192;51.664;7.626;2022-07-12T15:04:02;121.90;;;117.80;;
2362;SDS011;1192;51.664;7.626;2022-07-12T15:06:30;120.80;;;116.77;;
2362;SDS011;1192;51.664;7.626;2022-07-12T15:08:58;136.10;;;131.63;;
2362;SDS011;1192;51.664;7.626;2022-07-12T15:11:25;129.13;;;124.83;;
2362;SDS011;1192;51.664;7.626;2022-07-12T15:13:52;121.10;;;117.17;;
2362;SDS011;1192;51.664;7.626;2022-07-12T15:16:19;128.50;;;124.17;;
2362;SDS011;1192;51.664;7.626;2022-07-12T15:18:46;118.60;;;114.67;;
2362;SDS011;1192;51.664;7.626;2022-07-12T15:21:13;146.83;;;141.97;;